createdAt,value
2022-09-20T00:01:56.472Z,2.70
2022-09-20T00:02:56.450Z,2.00
2022-09-20T00:03:56.428Z,2.60
2022-09-20T00:04:56.481Z,2.80
2022-09-20T00:05:56.382Z,2.80
2022-09-20T00:06:56.359Z,2.60
2022-09-20T00:07:56.377Z,2.80
2022-09-20T00:08:56.326Z,3.00
2022-09-20T00:09:56.283Z,2.90
2022-09-20T00:10:56.261Z,2.50
2022-09-20T00:11:56.237Z,3.30
2022-09-20T00:12:56.211Z,2.40
2022-09-20T00:13:56.368Z,2.80
2022-09-20T00:14:56.165Z,2.80
2022-09-20T00:15:56.168Z,2.90
2022-09-20T00:16:56.166Z,2.40
2022-09-20T00:17:56.094Z,3.60
2022-09-20T00:18:56.070Z,2.60
2022-09-20T00:19:56.050Z,3.10
2022-09-20T00:20:56.022Z,3.30
2022-09-20T00:21:56.004Z,3.50
2022-09-20T00:22:55.975Z,2.70
2022-09-20T00:23:55.957Z,3.60
2022-09-20T00:24:55.926Z,2.60
2022-09-20T00:25:55.905Z,3.30
2022-09-20T00:26:55.891Z,2.80
2022-09-20T00:27:55.857Z,2.60
2022-09-20T00:28:55.914Z,3.10
2022-09-20T00:29:55.810Z,2.80
2022-09-20T00:37:55.622Z,3.00
2022-09-20T00:38:55.596Z,2.40
2022-09-20T00:39:55.573Z,2.30
2022-09-20T00:40:55.548Z,3.00
2022-09-20T00:41:55.525Z,3.10
2022-09-20T00:42:55.501Z,2.60
2022-09-20T00:43:55.593Z,2.30
2022-09-20T00:44:55.456Z,2.60
2022-09-20T00:45:55.476Z,3.00
2022-09-20T00:46:55.408Z,2.90
2022-09-20T00:47:55.406Z,3.10
2022-09-20T00:48:55.358Z,2.80
2022-09-20T00:49:55.336Z,2.60
2022-09-20T00:50:55.315Z,2.90
2022-09-20T00:51:55.289Z,3.10
2022-09-20T00:52:55.266Z,2.90
2022-09-20T00:53:55.241Z,2.60
2022-09-20T00:54:55.220Z,3.50
2022-09-20T00:55:55.193Z,2.80
2022-09-20T00:56:55.167Z,2.80
2022-09-20T00:57:55.146Z,3.30
2022-09-20T00:58:55.198Z,2.70
2022-09-20T00:59:55.098Z,2.50
2022-09-20T01:00:55.110Z,2.70
2022-09-20T01:01:55.086Z,2.80
2022-09-20T01:02:55.024Z,3.10
2022-09-20T01:03:55.024Z,2.60
2022-09-20T01:04:54.977Z,2.30
2022-09-20T01:05:54.954Z,2.80
2022-09-20T01:06:54.935Z,2.60
2022-09-20T01:07:54.909Z,2.50
2022-09-20T01:08:54.881Z,2.80
2022-09-20T01:09:54.861Z,2.70
2022-09-20T01:14:54.742Z,2.60
2022-09-20T01:15:54.716Z,2.20
2022-09-20T01:16:54.806Z,2.50
2022-09-20T01:17:54.670Z,2.20
2022-09-20T01:18:54.646Z,2.30
2022-09-20T01:19:54.643Z,2.80
2022-09-20T01:20:54.596Z,2.40
2022-09-20T01:21:54.575Z,2.30
2022-09-20T01:22:54.550Z,2.50
2022-09-20T01:23:54.530Z,3.50
2022-09-20T01:24:54.505Z,2.30
2022-09-20T01:25:54.478Z,2.40
2022-09-20T01:26:54.458Z,2.30
2022-09-20T01:27:54.434Z,2.20
2022-09-20T01:28:54.407Z,2.90
2022-09-20T01:29:54.384Z,3.00
2022-09-20T01:30:54.358Z,2.30
2022-09-20T01:31:54.409Z,2.50
2022-09-20T01:32:54.311Z,2.40
2022-09-20T01:33:54.291Z,2.30
2022-09-20T01:34:54.265Z,2.40
2022-09-20T01:35:54.263Z,2.50
2022-09-20T01:36:54.215Z,3.00
2022-09-20T01:37:54.194Z,2.60
2022-09-20T01:38:54.168Z,2.50
2022-09-20T01:39:54.146Z,2.40
2022-09-20T01:40:54.120Z,2.60
2022-09-20T01:41:54.099Z,2.70
2022-09-20T01:42:54.076Z,2.70
2022-09-20T01:43:54.055Z,3.50
2022-09-20T01:44:54.028Z,2.30
2022-09-20T01:45:54.111Z,2.50
2022-09-20T01:46:53.979Z,2.40
2022-09-20T01:47:53.959Z,2.80
2022-09-20T01:48:53.931Z,2.30
2022-09-20T01:49:53.909Z,2.90
2022-09-20T01:50:53.885Z,2.60
2022-09-20T01:51:53.889Z,2.40
2022-09-20T01:52:53.835Z,2.60
2022-09-20T01:54:53.790Z,2.80
2022-09-20T01:55:53.771Z,2.40
2022-09-20T01:56:53.746Z,2.30
2022-09-20T01:57:53.719Z,2.50
2022-09-20T01:59:22.806Z,2.80
2022-09-20T01:59:53.671Z,2.40
2022-09-20T02:00:53.720Z,2.70
2022-09-20T02:01:53.717Z,2.40
2022-09-20T02:02:53.602Z,2.50
2022-09-20T02:03:53.579Z,2.60
2022-09-20T02:04:53.550Z,2.40
2022-09-20T02:05:53.528Z,2.70
2022-09-20T02:06:53.503Z,2.50
2022-09-20T02:07:53.500Z,2.40
2022-09-20T02:31:53.004Z,2.60
2022-09-20T02:32:52.880Z,2.60
2022-09-20T03:08:52.105Z,2.80
2022-09-20T03:09:51.993Z,2.50
2022-09-20T03:10:51.970Z,3.00
2022-09-20T03:11:51.968Z,2.70
2022-09-20T03:12:51.929Z,2.60
2022-09-20T03:13:51.897Z,2.60
2022-09-20T03:45:51.214Z,2.50
2022-09-20T03:46:51.112Z,2.30
2022-09-20T03:47:51.081Z,2.70
2022-09-20T03:48:51.059Z,2.50
2022-09-20T03:49:51.035Z,2.60
2022-09-20T03:50:51.011Z,2.60
2022-09-20T03:51:50.988Z,2.80
2022-09-20T03:52:50.965Z,2.70
2022-09-20T03:53:50.939Z,2.60
2022-09-20T03:54:50.918Z,3.00
2022-09-20T03:55:50.890Z,2.70
2022-09-20T04:22:50.247Z,3.10
2022-09-20T04:23:50.221Z,2.80
2022-09-20T04:24:50.199Z,2.70
2022-09-20T04:25:50.173Z,3.10
2022-09-20T04:26:50.147Z,2.80
2022-09-20T04:27:50.124Z,2.80
2022-09-20T04:28:50.102Z,3.10
2022-09-20T04:29:50.075Z,3.10
2022-09-20T04:30:50.052Z,2.50
2022-09-20T04:31:53.952Z,3.20
2022-09-20T04:32:50.004Z,2.80
2022-09-20T04:33:49.982Z,2.80
2022-09-20T04:58:49.381Z,2.90
2022-09-20T04:59:49.351Z,3.20
2022-09-20T05:00:49.365Z,3.50
2022-09-20T05:01:49.359Z,3.10
2022-09-20T05:02:49.282Z,3.00
2022-09-20T05:03:49.284Z,2.90
2022-09-20T05:04:49.234Z,2.80
2022-09-20T05:05:49.208Z,3.50
2022-09-20T05:06:49.183Z,3.40
2022-09-20T05:07:49.167Z,3.00
2022-09-20T05:08:49.135Z,3.30
2022-09-20T05:09:49.113Z,2.90
2022-09-20T05:10:49.093Z,3.30
2022-09-20T05:11:49.062Z,3.60
2022-09-20T05:12:49.039Z,3.20
2022-09-20T05:13:49.012Z,3.60
2022-09-20T05:14:48.994Z,3.00
2022-09-20T05:15:48.967Z,3.20
2022-09-20T05:34:48.507Z,5.30
2022-09-20T05:35:48.497Z,4.30
2022-09-20T05:36:48.456Z,4.80
2022-09-20T05:37:48.428Z,5.00
2022-09-20T05:38:48.406Z,4.00
2022-09-20T05:39:48.382Z,4.40
2022-09-20T05:40:48.359Z,4.40
2022-09-20T05:41:48.332Z,4.30
2022-09-20T05:42:48.310Z,3.80
2022-09-20T05:43:48.283Z,4.40
2022-09-20T05:44:48.261Z,4.30
2022-09-20T05:45:48.291Z,3.90
2022-09-20T05:46:48.213Z,3.70
2022-09-20T05:47:48.186Z,4.10
2022-09-20T05:48:48.166Z,4.90
2022-09-20T05:49:48.138Z,4.40
2022-09-20T05:50:48.116Z,5.10
2022-09-20T05:51:48.107Z,4.80
2022-09-20T05:52:48.067Z,4.00
2022-09-20T06:07:47.736Z,3.80
2022-09-20T06:08:47.686Z,4.20
2022-09-20T06:09:47.653Z,4.00
2022-09-20T06:10:47.635Z,3.70
2022-09-20T06:11:47.603Z,3.40
2022-09-20T06:12:47.594Z,3.50
2022-09-20T06:13:47.559Z,3.60
2022-09-20T06:14:47.533Z,3.40
2022-09-20T06:15:47.508Z,3.60
2022-09-20T06:16:47.505Z,5.20
2022-09-20T06:17:47.462Z,8.00
2022-09-20T06:18:47.442Z,9.90
2022-09-20T06:19:47.412Z,9.30
2022-09-20T06:20:47.390Z,8.30
2022-09-20T06:21:47.364Z,7.60
2022-09-20T06:22:47.344Z,5.70
2022-09-20T06:23:47.335Z,4.80
2022-09-20T06:24:47.291Z,5.40
2022-09-20T06:25:47.349Z,4.00
2022-09-20T06:26:47.249Z,4.60
2022-09-20T06:27:47.220Z,4.00
2022-09-20T06:28:47.196Z,3.90
2022-09-20T06:29:47.170Z,3.60
2022-09-20T06:30:47.192Z,3.60
2022-09-20T06:31:47.124Z,3.50
2022-09-20T06:45:46.825Z,4.00
2022-09-20T06:46:46.765Z,3.50
2022-09-20T06:47:46.736Z,3.40
2022-09-20T06:48:46.714Z,3.80
2022-09-20T06:49:46.701Z,3.60
2022-09-20T06:50:46.667Z,3.80
2022-09-20T06:51:46.643Z,3.90
2022-09-20T06:52:46.619Z,3.50
2022-09-20T06:53:46.595Z,3.60
2022-09-20T06:54:46.569Z,4.40
2022-09-20T06:55:46.574Z,5.90
2022-09-20T06:56:46.526Z,4.50
2022-09-20T06:57:46.499Z,3.70
2022-09-20T06:58:46.477Z,4.40
2022-09-20T06:59:46.451Z,4.00
2022-09-20T07:00:46.491Z,5.10
2022-09-20T07:01:46.456Z,7.60
2022-09-20T07:02:46.379Z,12.90
2022-09-20T07:03:46.353Z,10.30
2022-09-20T07:04:46.333Z,12.10
2022-09-20T07:05:46.311Z,12.00
2022-09-20T07:06:46.282Z,4.90
2022-09-20T07:07:46.262Z,3.80
2022-09-20T07:08:46.246Z,3.40
2022-09-20T07:09:46.220Z,3.30
2022-09-20T07:10:46.186Z,3.10
2022-09-20T07:19:45.975Z,2.90
2022-09-20T07:20:45.953Z,3.10
2022-09-20T07:21:45.927Z,3.50
2022-09-20T07:22:45.904Z,3.20
2022-09-20T07:23:45.926Z,3.30
2022-09-20T07:24:45.855Z,3.30
2022-09-20T07:25:45.835Z,3.40
2022-09-20T07:26:45.810Z,3.80
2022-09-20T07:27:45.806Z,3.00
2022-09-20T07:28:45.765Z,3.30
2022-09-20T07:29:45.739Z,3.00
2022-09-20T07:30:45.715Z,3.10
2022-09-20T07:31:45.738Z,2.80
2022-09-20T07:32:45.668Z,3.00
2022-09-20T07:33:45.644Z,3.50
2022-09-20T07:34:45.621Z,2.70
2022-09-20T07:35:45.598Z,2.50
2022-09-20T07:36:45.574Z,2.50
2022-09-20T07:37:45.550Z,1.90
2022-09-20T07:38:45.528Z,2.20
2022-09-20T07:39:45.514Z,2.70
2022-09-20T07:40:45.480Z,2.60
2022-09-20T07:41:45.455Z,2.40
2022-09-20T07:42:45.434Z,2.20
2022-09-20T07:43:45.429Z,3.10
2022-09-20T07:44:45.386Z,2.40
2022-09-20T07:45:45.403Z,2.10
2022-09-20T07:46:45.337Z,2.80
2022-09-20T07:47:45.318Z,2.20
2022-09-20T07:48:45.290Z,2.20
2022-09-20T07:56:45.102Z,1.70
2022-09-20T07:57:45.082Z,2.00
2022-09-20T07:58:48.734Z,2.10
2022-09-20T07:59:45.059Z,1.80
2022-09-20T08:00:45.010Z,1.80
2022-09-20T08:01:44.989Z,1.90
2022-09-20T08:02:44.971Z,2.60
2022-09-20T08:03:44.941Z,2.20
2022-09-20T08:04:44.924Z,2.00
2022-09-20T08:05:44.893Z,2.00
2022-09-20T08:06:44.871Z,1.80
2022-09-20T08:07:44.850Z,1.90
2022-09-20T08:08:44.827Z,1.80
2022-09-20T08:09:44.801Z,1.90
2022-09-20T08:10:44.778Z,2.30
2022-09-20T08:11:44.759Z,2.40
2022-09-20T08:14:44.687Z,1.60
2022-09-20T08:15:44.798Z,1.60
2022-09-20T08:16:44.758Z,2.00
2022-09-20T08:17:44.617Z,1.90
2022-09-20T08:18:44.597Z,2.00
2022-09-20T08:19:44.575Z,1.80
2022-09-20T08:20:44.546Z,1.40
2022-09-20T08:21:44.528Z,1.70
2022-09-20T08:22:44.513Z,2.20
2022-09-20T08:23:44.491Z,1.50
2022-09-20T08:24:44.473Z,1.70
2022-09-20T08:25:44.435Z,2.10
2022-09-20T08:26:44.414Z,2.00
2022-09-20T08:30:44.318Z,4.70
2022-09-20T08:31:44.399Z,3.70
2022-09-20T08:32:44.276Z,1.80
2022-09-20T08:33:44.256Z,1.30
2022-09-20T08:34:49.408Z,1.60
2022-09-20T08:35:44.206Z,1.30
2022-09-20T08:36:44.182Z,1.70
2022-09-20T08:37:44.167Z,2.30
2022-09-20T08:39:59.705Z,1.50
2022-09-20T08:40:44.177Z,1.50
2022-09-20T08:41:44.071Z,2.20
2022-09-20T08:42:44.802Z,1.70
2022-09-20T08:43:45.528Z,1.80
2022-09-20T08:44:47.019Z,1.50
2022-09-20T08:45:44.022Z,2.10
2022-09-20T08:46:43.956Z,1.50
2022-09-20T08:47:43.956Z,1.40
2022-09-20T08:48:43.910Z,1.30
2022-09-20T08:49:46.049Z,1.40
2022-09-20T08:50:43.864Z,1.70
2022-09-20T08:51:48.619Z,1.70
2022-09-20T08:52:43.818Z,1.40
2022-09-20T08:53:49.209Z,1.10
2022-09-20T08:54:43.779Z,1.30
2022-09-20T08:55:43.753Z,1.40
2022-09-20T08:56:43.729Z,1.50
2022-09-20T08:57:43.714Z,1.30
2022-09-20T08:58:43.688Z,1.50
2022-09-20T08:59:43.663Z,1.20
2022-09-20T09:00:43.638Z,1.40
2022-09-20T09:01:43.617Z,1.20
2022-09-20T09:02:43.594Z,1.30
2022-09-20T09:03:43.593Z,1.40
2022-09-20T09:04:43.548Z,1.40
2022-09-20T09:05:43.529Z,1.30
2022-09-20T09:06:43.501Z,1.30
2022-09-20T09:34:42.868Z,1.40
2022-09-20T09:35:42.870Z,1.80
2022-09-20T09:36:42.835Z,1.30
2022-09-20T10:05:42.171Z,1.80
2022-09-20T10:06:42.156Z,2.30
2022-09-20T10:07:42.144Z,1.80
2022-09-20T10:08:42.103Z,1.80
2022-09-20T10:09:42.084Z,1.50
2022-09-20T10:10:42.061Z,1.70
2022-09-20T10:37:44.039Z,1.40
2022-09-20T10:38:41.437Z,1.60
2022-09-20T10:39:41.573Z,1.40
2022-09-20T10:40:41.455Z,1.50
2022-09-20T10:41:41.373Z,1.50
2022-09-20T10:42:41.346Z,1.30
2022-09-20T10:43:41.324Z,2.00
2022-09-20T10:44:41.306Z,1.50
2022-09-20T11:08:40.765Z,1.50
2022-09-20T11:09:40.744Z,1.30
2022-09-20T11:10:40.720Z,1.00
2022-09-20T11:11:40.724Z,1.00
2022-09-20T11:12:40.679Z,1.40
2022-09-20T11:13:40.662Z,1.00
2022-09-20T11:14:40.632Z,1.10
2022-09-20T11:15:40.613Z,1.00
2022-09-20T11:16:40.697Z,0.90
2022-09-20T11:17:40.569Z,1.10
2022-09-20T11:18:40.546Z,0.80
2022-09-20T11:43:40.009Z,1.30
2022-09-20T11:44:39.973Z,1.10
2022-09-20T11:45:39.984Z,1.30
2022-09-20T11:46:39.927Z,1.00
2022-09-20T11:47:55.874Z,0.90
2022-09-20T11:48:39.887Z,0.90
2022-09-20T11:49:39.856Z,1.30
2022-09-20T11:50:39.836Z,1.20
2022-09-20T11:51:39.821Z,0.80
2022-09-20T11:52:39.818Z,1.00
2022-09-20T11:53:39.777Z,1.20
2022-09-20T11:54:39.752Z,0.90
2022-09-20T11:55:39.724Z,1.20
2022-09-20T11:56:39.703Z,1.10
2022-09-20T12:16:39.359Z,1.00
2022-09-20T12:17:39.246Z,1.00
2022-09-20T12:18:39.225Z,1.20
2022-09-20T12:19:39.205Z,0.90
2022-09-20T12:20:39.186Z,1.00
2022-09-20T12:21:39.163Z,0.80
2022-09-20T12:22:39.138Z,1.10
2022-09-20T12:23:39.120Z,1.30
2022-09-20T12:24:43.166Z,0.80
2022-09-20T12:25:39.074Z,0.90
2022-09-20T12:26:39.054Z,0.90
2022-09-20T12:27:39.031Z,1.00
2022-09-20T12:28:39.014Z,1.30
2022-09-20T12:29:38.990Z,0.90
2022-09-20T12:30:38.966Z,1.10
2022-09-20T12:31:39.017Z,0.90
2022-09-20T12:50:38.531Z,1.30
2022-09-20T12:51:38.513Z,1.10
2022-09-20T12:52:38.489Z,2.50
2022-09-20T12:53:38.466Z,3.70
2022-09-20T12:54:38.446Z,1.60
2022-09-20T12:55:38.430Z,1.10
2022-09-20T12:56:38.413Z,1.40
2022-09-20T12:57:38.378Z,1.40
2022-09-20T12:58:38.361Z,2.20
2022-09-20T12:59:38.338Z,1.40
2022-09-20T13:00:38.356Z,1.10
2022-09-20T13:01:38.355Z,0.80
2022-09-20T13:02:38.273Z,1.20
2022-09-20T13:03:38.273Z,1.10
2022-09-20T13:04:38.231Z,1.50
2022-09-20T13:05:38.267Z,1.50
2022-09-20T13:06:38.188Z,1.40
2022-09-20T13:07:42.766Z,1.20
2022-09-20T13:26:37.828Z,1.10
2022-09-20T13:27:37.738Z,1.10
2022-09-20T13:28:37.718Z,0.90
2022-09-20T13:29:37.701Z,1.40
2022-09-20T13:30:37.687Z,1.20
2022-09-20T13:31:37.718Z,1.20
2022-09-20T13:32:37.633Z,1.20
2022-09-20T13:33:37.610Z,1.60
2022-09-20T13:34:37.595Z,1.30
2022-09-20T13:35:37.588Z,1.00
2022-09-20T13:36:37.548Z,1.10
2022-09-20T13:37:37.528Z,1.20
2022-09-20T13:38:37.506Z,0.90
2022-09-20T13:39:37.484Z,1.00
2022-09-20T13:40:37.500Z,1.20
2022-09-20T13:41:37.441Z,1.20
2022-09-20T13:42:37.419Z,1.50
2022-09-20T13:43:37.397Z,1.50
2022-09-20T13:44:37.375Z,1.00
2022-09-20T13:45:37.386Z,1.00
2022-09-20T13:46:37.334Z,1.50
2022-09-20T13:47:37.313Z,1.90
2022-09-20T13:48:37.300Z,1.30
2022-09-20T13:49:37.272Z,1.10
2022-09-20T14:01:37.014Z,1.00
2022-09-20T14:02:36.992Z,1.10
2022-09-20T14:03:36.971Z,0.90
2022-09-20T14:04:36.949Z,1.00
2022-09-20T14:05:36.930Z,1.20
2022-09-20T14:06:36.916Z,1.20
2022-09-20T14:07:36.949Z,6.50
2022-09-20T14:08:36.865Z,2.20
2022-09-20T14:09:36.847Z,1.30
2022-09-20T14:10:36.831Z,1.20
2022-09-20T14:11:36.799Z,0.90
2022-09-20T14:12:36.777Z,1.10
2022-09-20T14:13:36.759Z,2.10
2022-09-20T14:14:36.735Z,1.50
2022-09-20T14:15:36.719Z,1.10
2022-09-20T14:16:36.701Z,1.30
2022-09-20T14:17:36.755Z,1.20
2022-09-20T14:18:36.651Z,1.00
2022-09-20T14:19:36.631Z,1.10
2022-09-20T14:20:36.607Z,1.20
2022-09-20T14:21:36.590Z,1.20
2022-09-20T14:22:36.564Z,1.20
2022-09-20T14:23:36.562Z,1.20
2022-09-20T14:24:36.523Z,1.10
2022-09-20T14:25:36.505Z,0.90
2022-09-20T14:26:36.482Z,1.10
2022-09-20T14:27:36.459Z,1.00
2022-09-20T14:28:36.436Z,1.10
2022-09-20T14:29:36.415Z,1.00
2022-09-20T14:39:36.282Z,0.80
2022-09-20T14:40:36.244Z,0.80
2022-09-20T14:41:36.157Z,1.00
2022-09-20T14:42:36.137Z,1.10
2022-09-20T14:43:36.117Z,0.90
2022-09-20T14:44:36.092Z,0.90
2022-09-20T14:45:36.110Z,0.90
2022-09-20T14:46:36.047Z,0.90
2022-09-20T14:47:36.024Z,0.90
2022-09-20T14:48:36.003Z,1.00
2022-09-20T14:49:35.982Z,0.90
2022-09-20T14:50:35.966Z,1.10
2022-09-20T14:51:35.943Z,1.10
2022-09-20T14:52:35.915Z,1.70
2022-09-20T14:53:35.891Z,1.10
2022-09-20T14:54:35.870Z,1.20
2022-09-20T14:55:37.579Z,1.20
2022-09-20T14:56:35.827Z,1.30
2022-09-20T14:57:35.801Z,1.50
2022-09-20T14:58:35.782Z,1.10
2022-09-20T14:59:35.759Z,1.30
2022-09-20T15:00:35.752Z,1.60
2022-09-20T15:01:35.717Z,1.20
2022-09-20T15:02:35.724Z,1.50
2022-09-20T15:03:35.669Z,1.30
2022-09-20T15:04:35.647Z,1.30
2022-09-20T15:05:35.622Z,1.20
2022-09-20T15:06:35.604Z,1.30
2022-09-20T15:14:37.799Z,1.90
2022-09-20T15:15:35.406Z,1.10
2022-09-20T15:16:35.431Z,1.60
2022-09-20T15:17:35.352Z,1.30
2022-09-20T15:18:35.335Z,1.40
2022-09-20T15:19:35.309Z,1.50
2022-09-20T15:20:35.289Z,1.20
2022-09-20T15:21:35.275Z,1.30
2022-09-20T15:22:35.244Z,1.20
2022-09-20T15:23:35.231Z,0.90
2022-09-20T15:24:35.197Z,1.30
2022-09-20T15:25:35.176Z,1.20
2022-09-20T15:26:35.164Z,1.20
2022-09-20T15:27:35.152Z,1.10
2022-09-20T15:28:35.108Z,1.30
2022-09-20T15:29:35.090Z,1.40
2022-09-20T15:30:35.067Z,1.10
2022-09-20T15:31:35.080Z,1.00
2022-09-20T15:32:35.018Z,1.20
2022-09-20T15:33:34.999Z,1.20
2022-09-20T15:34:34.975Z,1.30
2022-09-20T15:35:34.972Z,1.00
2022-09-20T15:36:34.932Z,1.10
2022-09-20T15:37:34.907Z,1.10
2022-09-20T15:38:34.884Z,1.10
2022-09-20T15:39:34.867Z,1.10
2022-09-20T15:40:34.894Z,1.40
2022-09-20T15:41:34.818Z,1.20
2022-09-20T15:42:34.795Z,0.90
2022-09-20T15:43:34.794Z,1.00
2022-09-20T15:44:34.761Z,1.20
2022-09-20T15:47:34.695Z,1.00
2022-09-20T15:48:34.661Z,1.10
2022-09-20T15:49:34.643Z,1.00
2022-09-20T15:50:34.620Z,1.30
2022-09-20T15:51:34.599Z,1.30
2022-09-20T15:52:34.572Z,1.30
2022-09-20T15:53:34.554Z,1.50
2022-09-20T15:54:34.528Z,1.30
2022-09-20T15:55:34.506Z,1.20
2022-09-20T15:56:34.484Z,1.10
2022-09-20T15:57:34.463Z,1.00
2022-09-20T15:58:36.183Z,1.10
2022-09-20T15:59:34.445Z,1.20
2022-09-20T16:00:34.393Z,1.00
2022-09-20T16:01:34.372Z,1.10
2022-09-20T16:02:34.348Z,1.70
2022-09-20T16:03:34.328Z,1.40
2022-09-20T16:04:34.307Z,1.20
2022-09-20T16:05:34.286Z,1.20
2022-09-20T16:06:34.262Z,1.20
2022-09-20T16:07:34.240Z,1.10
2022-09-20T16:08:34.223Z,1.10
2022-09-20T16:09:34.195Z,1.20
2022-09-20T16:10:34.171Z,1.10
2022-09-20T16:11:34.148Z,1.20
2022-09-20T16:12:34.125Z,1.10
2022-09-20T16:13:34.106Z,1.20
2022-09-20T16:14:34.084Z,1.10
2022-09-20T16:15:34.095Z,1.20
2022-09-20T16:16:38.913Z,1.50
2022-09-20T16:17:34.025Z,1.30
2022-09-20T16:18:33.999Z,1.30
2022-09-20T16:19:33.977Z,1.10
2022-09-20T16:20:33.951Z,1.40
2022-09-20T16:21:33.927Z,1.40
2022-09-20T16:22:33.910Z,1.30
2022-09-20T16:23:33.885Z,1.20
2022-09-20T16:24:33.858Z,1.10
2022-09-20T16:25:33.837Z,1.20
2022-09-20T16:26:33.815Z,1.20
2022-09-20T16:27:33.793Z,1.00
2022-09-20T16:28:33.773Z,1.00
2022-09-20T16:29:33.753Z,1.00
2022-09-20T16:30:33.725Z,1.30
2022-09-20T16:31:33.761Z,1.10
2022-09-20T16:32:33.681Z,1.00
2022-09-20T16:33:33.663Z,1.70
2022-09-20T16:34:33.638Z,1.40
2022-09-20T16:35:33.623Z,1.20
2022-09-20T16:36:33.598Z,1.40
2022-09-20T16:37:33.571Z,1.70
2022-09-20T16:38:33.553Z,1.10
2022-09-20T16:39:33.535Z,1.10
2022-09-20T16:40:33.573Z,1.10
2022-09-20T16:49:33.308Z,1.40
2022-09-20T17:15:32.733Z,1.40
2022-09-20T17:16:32.740Z,1.90
2022-09-20T17:17:32.689Z,1.60
2022-09-20T17:42:32.147Z,2.10
2022-09-20T17:43:32.112Z,2.00
2022-09-20T17:44:32.088Z,1.90
2022-09-20T17:45:32.070Z,1.60
2022-09-20T18:09:31.527Z,2.10
2022-09-20T18:10:31.504Z,1.80
2022-09-20T18:11:31.484Z,1.90
2022-09-20T18:12:31.458Z,2.20
2022-09-20T18:13:31.437Z,1.80
2022-09-20T18:14:31.413Z,1.90
2022-09-20T18:15:31.392Z,2.00
2022-09-20T18:37:30.897Z,2.90
2022-09-20T18:38:30.873Z,2.40
2022-09-20T18:39:30.867Z,2.20
2022-09-20T18:40:30.934Z,2.30
2022-09-20T18:41:30.803Z,2.00
2022-09-20T18:42:30.778Z,1.90
2022-09-20T18:43:30.766Z,2.10
2022-09-20T18:44:30.737Z,2.30
2022-09-20T18:45:30.716Z,1.90
2022-09-20T19:06:30.235Z,2.40
2022-09-20T19:07:30.212Z,1.90
2022-09-20T19:08:30.193Z,2.60
2022-09-20T19:09:30.170Z,1.80
2022-09-20T19:10:30.895Z,2.00
2022-09-20T19:11:30.204Z,2.40
2022-09-20T19:12:30.098Z,2.20
2022-09-20T19:13:30.078Z,2.00
2022-09-20T19:14:30.051Z,1.90
2022-09-20T19:15:30.031Z,2.40
2022-09-20T19:16:30.067Z,2.00
2022-09-20T19:17:29.984Z,2.20
2022-09-20T19:34:29.592Z,2.20
2022-09-20T19:35:29.572Z,2.20
2022-09-20T19:36:29.549Z,2.00
2022-09-20T19:37:29.527Z,2.30
2022-09-20T19:38:29.502Z,2.20
2022-09-20T19:39:29.481Z,2.30
2022-09-20T19:40:29.474Z,2.50
2022-09-20T19:41:29.447Z,2.10
2022-09-20T19:42:29.430Z,2.70
2022-09-20T19:43:29.408Z,2.20
2022-09-20T19:44:29.372Z,2.00
2022-09-20T19:45:29.343Z,2.10
2022-09-20T19:46:29.357Z,2.30
2022-09-20T20:01:29.021Z,2.10
2022-09-20T20:02:29.028Z,2.50
2022-09-20T20:03:28.932Z,2.20
2022-09-20T20:04:28.907Z,1.90
2022-09-20T20:05:28.882Z,2.20
2022-09-20T20:06:28.860Z,2.60
2022-09-20T20:07:28.837Z,2.50
2022-09-20T20:08:28.815Z,2.20
2022-09-20T20:09:28.793Z,2.30
2022-09-20T20:10:28.767Z,2.60
2022-09-20T20:11:28.745Z,2.20
2022-09-20T20:12:28.720Z,2.30
2022-09-20T20:13:28.697Z,2.40
2022-09-20T20:14:28.674Z,2.40
2022-09-20T20:15:28.669Z,2.70
2022-09-20T20:16:28.630Z,2.50
2022-09-20T20:30:28.310Z,2.10
2022-09-20T20:31:28.389Z,2.30
2022-09-20T20:32:28.254Z,2.00
2022-09-20T20:33:28.231Z,2.10
2022-09-20T20:34:28.210Z,2.00
2022-09-20T20:35:28.191Z,1.90
2022-09-20T20:36:28.167Z,2.20
2022-09-20T20:37:28.166Z,2.30
2022-09-20T20:38:28.115Z,2.10
2022-09-20T20:39:28.092Z,2.30
2022-09-20T20:40:28.115Z,3.00
2022-09-20T20:41:28.052Z,3.50
2022-09-20T20:42:28.022Z,3.00
2022-09-20T20:43:27.997Z,2.70
2022-09-20T20:44:27.975Z,3.30
2022-09-20T20:45:27.954Z,3.20
2022-09-20T20:46:27.943Z,3.30
2022-09-20T21:00:27.609Z,3.70
2022-09-20T21:01:27.640Z,3.60
2022-09-20T21:02:27.587Z,3.80
2022-09-20T21:03:27.548Z,3.70
2022-09-20T21:04:27.511Z,3.70
2022-09-20T21:05:27.482Z,3.20
2022-09-20T21:06:27.464Z,3.20
2022-09-20T21:07:27.436Z,3.50
2022-09-20T21:08:27.415Z,3.50
2022-09-20T21:09:27.393Z,3.50
2022-09-20T21:10:27.368Z,3.70
2022-09-20T21:11:27.345Z,3.40
2022-09-20T21:12:27.325Z,3.50
2022-09-20T21:13:27.305Z,3.60
2022-09-20T21:14:27.275Z,3.00
2022-09-20T21:15:27.275Z,3.30
2022-09-20T21:16:27.227Z,3.10
2022-09-20T21:17:27.205Z,3.20
2022-09-20T21:18:27.184Z,3.10
2022-09-20T21:19:27.177Z,3.10
2022-09-20T21:30:26.901Z,3.00
2022-09-20T21:31:26.916Z,2.90
2022-09-20T21:32:26.852Z,2.60
2022-09-20T21:33:26.830Z,3.30
2022-09-20T21:34:26.806Z,2.80
2022-09-20T21:35:26.919Z,2.90
2022-09-20T21:36:26.768Z,3.10
2022-09-20T21:37:26.735Z,3.60
2022-09-20T21:38:26.713Z,3.10
2022-09-20T21:39:26.696Z,3.00
2022-09-20T21:40:26.766Z,3.20
2022-09-20T21:41:26.641Z,3.40
2022-09-20T21:42:26.617Z,3.30
2022-09-20T21:43:26.595Z,3.50
2022-09-20T21:44:26.570Z,3.00
2022-09-20T21:45:26.546Z,3.30
2022-09-20T21:46:26.585Z,3.30
2022-09-20T21:47:26.498Z,3.00
2022-09-20T21:48:26.477Z,3.00
2022-09-20T21:49:26.453Z,3.50
2022-09-20T21:50:26.430Z,3.90
2022-09-20T21:59:26.219Z,3.40
2022-09-20T22:00:26.204Z,3.10
2022-09-20T22:01:26.198Z,3.10
2022-09-20T22:02:26.187Z,3.20
2022-09-20T22:03:26.123Z,4.10
2022-09-20T22:04:26.104Z,3.70
2022-09-20T22:05:26.074Z,3.60
2022-09-20T22:06:26.062Z,3.10
2022-09-20T22:07:26.050Z,3.00
2022-09-20T22:08:26.007Z,3.20
2022-09-20T22:09:25.980Z,3.20
2022-09-20T22:10:25.955Z,3.50
2022-09-20T22:11:25.932Z,3.20
2022-09-20T22:12:25.907Z,3.30
2022-09-20T22:13:25.891Z,3.50
2022-09-20T22:14:25.863Z,3.50
2022-09-20T22:15:25.928Z,3.10
2022-09-20T22:16:25.817Z,3.00
2022-09-20T22:17:25.795Z,2.90
2022-09-20T22:18:25.769Z,2.70
2022-09-20T22:19:25.744Z,3.10
2022-09-20T22:20:25.720Z,3.40
2022-09-20T22:21:25.694Z,3.20
2022-09-20T22:22:25.673Z,3.30
2022-09-20T22:29:25.504Z,3.50
2022-09-20T22:30:25.483Z,2.90
2022-09-20T22:31:25.461Z,3.10
2022-09-20T22:32:25.439Z,3.00
2022-09-20T22:33:25.411Z,2.90
2022-09-20T22:34:25.386Z,3.00
2022-09-20T22:35:25.361Z,3.10
2022-09-20T22:36:25.342Z,3.50
2022-09-20T22:37:25.313Z,3.40
2022-09-20T22:38:25.291Z,3.40
2022-09-20T22:39:25.289Z,3.20
2022-09-20T22:40:25.289Z,3.00
2022-09-20T22:41:25.221Z,3.30
2022-09-20T22:42:25.199Z,3.10
2022-09-20T22:43:25.172Z,3.50
2022-09-20T22:44:25.149Z,3.20
2022-09-20T22:45:25.124Z,3.30
2022-09-20T22:46:25.102Z,3.50
2022-09-20T22:47:25.075Z,3.10
2022-09-20T22:48:25.056Z,3.30
2022-09-20T22:49:25.036Z,3.50
2022-09-20T22:50:25.011Z,3.20
2022-09-20T22:51:24.986Z,3.80
2022-09-20T22:52:24.957Z,3.30
2022-09-20T22:53:24.932Z,3.70
2022-09-20T22:54:24.909Z,3.50
2022-09-20T22:58:24.813Z,3.30
2022-09-20T22:59:24.793Z,3.20
2022-09-20T23:00:24.765Z,3.10
2022-09-20T23:01:24.839Z,2.80
2022-09-20T23:02:24.723Z,3.00
2022-09-20T23:03:24.727Z,3.00
2022-09-20T23:04:24.671Z,2.90
2022-09-20T23:05:24.645Z,2.80
2022-09-20T23:06:24.626Z,3.30
2022-09-20T23:07:24.599Z,2.90
2022-09-20T23:08:24.575Z,3.00
2022-09-20T23:09:24.553Z,3.60
2022-09-20T23:10:24.527Z,3.20
2022-09-20T23:11:24.572Z,3.70
2022-09-20T23:12:24.480Z,3.20
2022-09-20T23:13:24.454Z,3.50
2022-09-20T23:14:24.436Z,3.50
2022-09-20T23:15:24.408Z,3.70
2022-09-20T23:24:08.040Z,3.40
2022-09-20T23:25:08.014Z,2.90
2022-09-20T23:26:07.992Z,3.20
2022-09-20T23:27:08.071Z,3.30
2022-09-20T23:28:07.944Z,3.70
2022-09-20T23:29:07.929Z,3.30
2022-09-20T23:30:07.895Z,2.80
2022-09-20T23:31:07.929Z,3.10
2022-09-20T23:32:07.848Z,2.80
2022-09-20T23:33:07.830Z,2.80
2022-09-20T23:34:07.914Z,2.60
2022-09-20T23:35:07.776Z,2.50
2022-09-20T23:36:07.752Z,2.50
2022-09-20T23:37:07.730Z,2.60
2022-09-20T23:38:07.706Z,2.90
2022-09-20T23:39:07.682Z,2.70
2022-09-20T23:40:07.688Z,2.90
2022-09-20T23:41:07.630Z,2.70
2022-09-20T23:42:07.612Z,2.70
2022-09-20T23:43:07.603Z,2.80
2022-09-20T23:44:07.561Z,2.60
2022-09-20T23:45:07.537Z,2.60
2022-09-20T23:46:07.547Z,2.80
2022-09-20T23:47:07.488Z,3.00
2022-09-20T23:48:07.464Z,3.20
2022-09-20T23:49:07.595Z,3.40
2022-09-20T23:50:07.418Z,3.20
2022-09-20T23:51:07.391Z,3.20
2022-09-20T23:52:07.367Z,3.10
2022-09-20T23:53:07.344Z,3.20
2022-09-20T23:54:07.317Z,3.00
2022-09-20T23:55:07.295Z,3.00
2022-09-20T23:56:07.273Z,2.90
2022-09-20T23:57:07.244Z,3.20
2022-09-20T23:58:07.226Z,3.70
2022-09-20T23:59:07.269Z,3.20
